createdAt,value
2022-08-05T00:00:16.378Z,100394.00
2022-08-05T00:02:51.284Z,100390.69
2022-08-05T00:06:01.699Z,100388.44
2022-08-05T00:08:19.787Z,100387.06
2022-08-05T00:10:54.245Z,100384.09
2022-08-05T00:13:21.103Z,100385.41
2022-08-05T00:16:06.557Z,100392.16
2022-08-05T00:18:36.442Z,100390.50
2022-08-05T00:21:06.452Z,100391.56
2022-08-05T00:23:45.919Z,100387.72
2022-08-05T00:26:15.240Z,100390.41
2022-08-05T00:28:43.744Z,100391.56
2022-08-05T00:31:13.116Z,100388.81
2022-08-05T00:34:54.423Z,100398.25
2022-08-05T00:37:10.379Z,100392.69
2022-08-05T00:39:14.206Z,100390.09
2022-08-05T00:41:55.083Z,100393.44
2022-08-05T00:44:30.644Z,100388.16
2022-08-05T00:47:02.165Z,100379.41
2022-08-05T00:49:32.356Z,100392.28
2022-08-05T00:52:00.512Z,100391.69
2022-08-05T00:54:28.081Z,100390.78
2022-08-05T00:56:57.018Z,100388.84
2022-08-05T00:59:24.009Z,100390.78
2022-08-05T01:01:51.300Z,100394.84
2022-08-05T01:04:20.189Z,100400.13
2022-08-05T01:06:53.805Z,100402.88
2022-08-05T01:09:22.793Z,100403.97
2022-08-05T01:11:52.293Z,100404.72
2022-08-05T01:14:36.544Z,100409.97
2022-08-05T01:17:21.711Z,100413.97
2022-08-05T01:20:03.843Z,100396.47
2022-08-05T01:22:57.495Z,100386.28
2022-08-05T01:25:41.543Z,100381.13
2022-08-05T01:28:08.792Z,100377.03
2022-08-05T01:30:40.132Z,100389.41
2022-08-05T01:33:25.323Z,100388.22
2022-08-05T01:35:57.474Z,100389.81
2022-08-05T01:38:29.165Z,100388.16
2022-08-05T01:40:59.915Z,100388.91
2022-08-05T01:43:29.834Z,100393.47
2022-08-05T01:46:07.533Z,100389.25
2022-08-05T01:48:49.838Z,100394.91
2022-08-05T01:51:18.856Z,100391.50
2022-08-05T01:53:58.048Z,100395.41
2022-08-05T01:58:11.959Z,100396.25
2022-08-05T01:59:23.002Z,100400.09
2022-08-05T02:01:54.820Z,100403.88
2022-08-05T02:04:24.344Z,100417.50
2022-08-05T02:06:52.849Z,100422.75
2022-08-05T02:09:20.653Z,100421.34
2022-08-05T02:12:12.611Z,100422.00
2022-08-05T02:14:52.701Z,100413.66
2022-08-05T02:18:27.482Z,100410.34
2022-08-05T02:20:20.596Z,100409.06
2022-08-05T02:22:51.908Z,100413.16
2022-08-05T02:25:24.900Z,100420.16
2022-08-05T02:27:58.516Z,100419.59
2022-08-05T02:30:34.386Z,100420.34
2022-08-05T02:33:03.855Z,100434.34
2022-08-05T02:35:38.620Z,100429.00
2022-08-05T02:38:19.322Z,100426.16
2022-08-05T02:40:47.574Z,100432.75
2022-08-05T02:43:16.967Z,100434.06
2022-08-05T02:45:51.477Z,100430.47
2022-08-05T02:48:29.015Z,100432.56
2022-08-05T02:51:00.214Z,100428.97
2022-08-05T02:53:39.148Z,100431.13
2022-08-05T02:56:08.665Z,100433.63
2022-08-05T02:58:37.275Z,100440.41
2022-08-05T03:01:17.418Z,100437.66
2022-08-05T03:04:02.836Z,100439.13
2022-08-05T03:06:53.575Z,100434.25
2022-08-05T03:09:36.569Z,100438.16
2022-08-05T03:12:05.752Z,100440.09
2022-08-05T03:14:32.763Z,100438.66
2022-08-05T03:17:00.787Z,100435.41
2022-08-05T03:19:34.148Z,100436.81
2022-08-05T03:22:03.113Z,100440.16
2022-08-05T03:24:32.104Z,100432.50
2022-08-05T03:27:00.881Z,100443.56
2022-08-05T03:29:45.733Z,100443.00
2022-08-05T03:32:15.775Z,100439.34
2022-08-05T03:34:50.633Z,100438.91
2022-08-05T03:37:20.586Z,100439.50
2022-08-05T03:40:01.158Z,100439.75
2022-08-05T03:42:32.239Z,100443.44
2022-08-05T03:45:01.778Z,100438.41
2022-08-05T03:47:46.714Z,100439.50
2022-08-05T03:50:16.184Z,100447.06
2022-08-05T03:55:00.395Z,100447.34
2022-08-05T03:56:27.802Z,100449.34
2022-08-05T03:59:01.299Z,100445.91
2022-08-05T04:01:32.131Z,100441.56
2022-08-05T04:04:09.884Z,100446.50
2022-08-05T04:06:47.555Z,100442.47
2022-08-05T04:09:20.317Z,100442.97
2022-08-05T04:11:53.469Z,100448.13
2022-08-05T04:14:30.437Z,100456.72
2022-08-05T04:17:00.211Z,100457.47
2022-08-05T04:19:28.900Z,100456.09
2022-08-05T04:22:09.009Z,100460.28
2022-08-05T04:24:52.328Z,100466.91
2022-08-05T04:27:41.967Z,100471.72
2022-08-05T04:30:08.732Z,100473.13
2022-08-05T04:32:35.945Z,100476.28
2022-08-05T04:35:04.687Z,100468.88
2022-08-05T04:38:02.371Z,100470.69
2022-08-05T04:40:19.926Z,100479.03
2022-08-05T04:42:46.873Z,100482.16
2022-08-05T04:45:14.171Z,100488.16
2022-08-05T04:47:49.857Z,100483.72
2022-08-05T04:50:37.564Z,100491.22
2022-08-05T04:53:04.656Z,100483.00
2022-08-05T04:56:14.274Z,100483.50
2022-08-05T04:58:21.504Z,100496.72
2022-08-05T05:00:50.644Z,100491.84
2022-08-05T05:03:18.825Z,100487.69
2022-08-05T05:06:36.516Z,100494.00
2022-08-05T05:08:36.866Z,100488.72
2022-08-05T05:11:10.680Z,100493.88
2022-08-05T05:13:43.369Z,100500.78
2022-08-05T05:16:10.648Z,100503.53
2022-08-05T05:18:38.567Z,100500.78
2022-08-05T05:21:05.718Z,100501.16
2022-08-05T05:24:02.078Z,100503.19
2022-08-05T05:26:28.752Z,100507.25
2022-08-05T05:28:59.863Z,100507.47
2022-08-05T05:31:26.720Z,100509.13
2022-08-05T05:33:59.294Z,100511.41
2022-08-05T05:36:28.759Z,100519.28
2022-08-05T05:38:57.412Z,100519.16
2022-08-05T05:41:24.534Z,100515.69
2022-08-05T05:43:56.892Z,100523.56
2022-08-05T05:46:26.827Z,100531.91
2022-08-05T05:48:53.619Z,100536.47
2022-08-05T05:51:25.666Z,100533.94
2022-08-05T05:53:57.284Z,100539.66
2022-08-05T05:56:32.618Z,100532.09
2022-08-05T05:59:06.720Z,100539.47
2022-08-05T06:01:38.961Z,100547.38
2022-08-05T06:04:12.739Z,100548.19
2022-08-05T06:06:47.688Z,100561.03
2022-08-05T06:09:35.377Z,100557.41
2022-08-05T06:12:04.284Z,100553.75
2022-08-05T06:14:31.787Z,100556.25
2022-08-05T06:17:02.150Z,100567.13
2022-08-05T06:19:56.542Z,100563.81
2022-08-05T06:22:33.911Z,100568.81
2022-08-05T06:25:59.251Z,100566.16
2022-08-05T06:28:09.002Z,100569.41
2022-08-05T06:30:37.370Z,100575.84
2022-08-05T06:33:04.188Z,100566.69
2022-08-05T06:36:03.685Z,100577.25
2022-08-05T06:38:17.839Z,100578.69
2022-08-05T06:41:03.734Z,100575.00
2022-08-05T06:43:58.000Z,100577.50
2022-08-05T06:46:18.505Z,100582.63
2022-08-05T06:48:56.455Z,100579.44
2022-08-05T06:51:29.744Z,100579.00
2022-08-05T06:54:02.017Z,100585.69
2022-08-05T06:56:29.890Z,100585.66
2022-08-05T06:59:00.290Z,100597.38
2022-08-05T07:01:32.195Z,100592.50
2022-08-05T07:04:02.309Z,100603.50
2022-08-05T07:06:29.568Z,100601.13
2022-08-05T07:08:56.468Z,100607.47
2022-08-05T07:11:28.078Z,100601.44
2022-08-05T07:14:20.657Z,100602.84
2022-08-05T07:17:59.946Z,100601.44
2022-08-05T07:22:42.123Z,100606.44
2022-08-05T07:25:54.153Z,100599.44
2022-08-05T07:28:02.709Z,100609.00
2022-08-05T07:30:34.761Z,100607.31
2022-08-05T07:33:09.900Z,100608.06
2022-08-05T07:36:02.115Z,100614.38
2022-08-05T07:38:33.932Z,100618.63
2022-08-05T07:42:08.709Z,100622.66
2022-08-05T07:43:58.514Z,100618.25
2022-08-05T07:46:30.829Z,100612.03
2022-08-05T07:49:05.018Z,100624.09
2022-08-05T07:51:36.610Z,100629.28
2022-08-05T07:54:08.446Z,100627.72
2022-08-05T07:56:39.382Z,100633.34
2022-08-05T07:59:39.117Z,100638.78
2022-08-05T08:02:16.985Z,100640.34
2022-08-05T08:04:48.184Z,100636.47
2022-08-05T08:07:17.975Z,100645.22
2022-08-05T08:09:49.591Z,100644.91
2022-08-05T08:12:33.507Z,100639.59
2022-08-05T08:15:09.737Z,100639.44
2022-08-05T08:17:46.140Z,100643.41
2022-08-05T08:20:42.834Z,100652.41
2022-08-05T08:24:00.104Z,100649.16
2022-08-05T08:26:00.952Z,100635.38
2022-08-05T08:28:36.259Z,100642.03
2022-08-05T08:31:08.445Z,100636.06
2022-08-05T08:33:37.994Z,100638.88
2022-08-05T08:36:40.183Z,100635.63
2022-08-05T08:38:55.790Z,100644.00
2022-08-05T08:41:26.279Z,100651.16
2022-08-05T08:45:18.646Z,100644.88
2022-08-05T08:47:47.179Z,100647.03
2022-08-05T08:50:22.300Z,100647.94
2022-08-05T08:52:42.717Z,100633.41
2022-08-05T08:55:19.488Z,100640.28
2022-08-05T08:58:02.174Z,100632.06
2022-08-05T09:00:30.735Z,100637.41
2022-08-05T09:02:58.526Z,100643.28
2022-08-05T09:05:38.664Z,100651.50
2022-08-05T09:08:13.088Z,100647.63
2022-08-05T09:10:43.488Z,100656.22
2022-08-05T09:13:15.695Z,100646.63
2022-08-05T09:15:42.999Z,100653.00
2022-08-05T09:18:13.362Z,100656.91
2022-08-05T09:20:42.071Z,100650.81
2022-08-05T09:23:18.677Z,100647.28
2022-08-05T09:26:02.518Z,100643.94
2022-08-05T09:28:33.857Z,100653.03
2022-08-05T09:31:22.522Z,100661.63
2022-08-05T09:34:01.588Z,100650.25
2022-08-05T09:36:55.228Z,100641.16
2022-08-05T09:39:39.507Z,100652.25
2022-08-05T09:42:23.391Z,100642.88
2022-08-05T09:44:56.734Z,100655.88
2022-08-05T09:47:48.041Z,100651.50
2022-08-05T09:50:18.144Z,100649.31
2022-08-05T09:53:01.366Z,100655.97
2022-08-05T09:55:57.872Z,100654.88
2022-08-05T09:58:22.921Z,100662.03
2022-08-05T10:01:01.247Z,100661.06
2022-08-05T10:03:38.761Z,100657.41
2022-08-05T10:06:20.624Z,100658.28
2022-08-05T10:08:50.337Z,100645.63
2022-08-05T10:11:21.044Z,100647.84
2022-08-05T10:13:49.350Z,100656.22
2022-08-05T10:16:32.124Z,100657.06
2022-08-05T10:19:08.565Z,100646.78
2022-08-05T10:21:40.507Z,100657.34
2022-08-05T10:24:13.521Z,100656.25
2022-08-05T10:26:48.977Z,100646.25
2022-08-05T10:29:23.440Z,100654.56
2022-08-05T10:32:54.989Z,100654.56
2022-08-05T10:34:37.866Z,100658.72
2022-08-05T10:37:08.329Z,100658.19
2022-08-05T10:39:59.417Z,100651.81
2022-08-05T10:42:32.565Z,100656.22
2022-08-05T10:45:02.099Z,100672.63
2022-08-05T10:48:31.892Z,100661.22
2022-08-05T10:51:00.900Z,100660.59
2022-08-05T10:53:38.410Z,100659.72
2022-08-05T10:56:25.313Z,100658.25
2022-08-05T10:58:55.843Z,100668.91
2022-08-05T11:01:55.438Z,100667.28
2022-08-05T11:04:23.459Z,100672.56
2022-08-05T11:07:01.856Z,100678.69
2022-08-05T11:09:45.486Z,100674.53
2022-08-05T11:12:43.847Z,100665.94
2022-08-05T11:16:00.894Z,100671.50
2022-08-05T11:18:34.680Z,100677.81
2022-08-05T11:21:11.609Z,100681.16
2022-08-05T11:24:04.503Z,100683.16
2022-08-05T11:26:43.402Z,100684.81
2022-08-05T11:29:38.311Z,100686.47
2022-08-05T11:32:30.534Z,100698.06
2022-08-05T11:34:57.783Z,100688.66
2022-08-05T11:38:28.238Z,100682.00
2022-08-05T11:41:34.591Z,100679.13
2022-08-05T11:44:11.066Z,100690.41
2022-08-05T11:47:09.937Z,100686.31
2022-08-05T11:49:36.535Z,100675.16
2022-08-05T11:52:08.405Z,100689.78
2022-08-05T11:54:40.678Z,100689.25
2022-08-05T11:57:25.041Z,100689.31
2022-08-05T11:59:55.571Z,100687.81
2022-08-05T12:02:33.420Z,100703.41
2022-08-05T12:05:07.067Z,100693.06
2022-08-05T12:08:07.310Z,100703.72
2022-08-05T12:10:38.638Z,100699.22
2022-08-05T12:13:15.482Z,100699.22
2022-08-05T12:15:49.709Z,100696.88
2022-08-05T12:18:32.843Z,100702.41
2022-08-05T12:21:31.849Z,100691.53
2022-08-05T12:24:07.248Z,100694.03
2022-08-05T12:26:43.820Z,100706.50
2022-08-05T12:29:22.794Z,100715.13
2022-08-05T12:31:53.752Z,100704.13
2022-08-05T12:34:26.861Z,100715.63
2022-08-05T12:36:56.418Z,100708.38
2022-08-05T12:39:34.523Z,100723.41
2022-08-05T12:42:14.908Z,100722.97
2022-08-05T12:44:44.673Z,100720.34
2022-08-05T12:47:13.784Z,100716.75
2022-08-05T12:50:03.165Z,100721.41
2022-08-05T12:52:41.841Z,100720.41
2022-08-05T12:55:23.932Z,100723.00
2022-08-05T12:58:48.830Z,100719.19
2022-08-05T13:02:02.360Z,100719.69
2022-08-05T13:03:33.021Z,100718.16
2022-08-05T13:06:01.866Z,100722.91
2022-08-05T13:08:30.335Z,100720.22
2022-08-05T13:11:04.189Z,100725.94
2022-08-05T13:14:05.545Z,100732.03
2022-08-05T13:16:20.339Z,100730.34
2022-08-05T13:18:58.351Z,100726.38
2022-08-05T13:21:28.497Z,100730.00
2022-08-05T13:24:09.379Z,100739.69
2022-08-05T13:26:40.289Z,100735.97
2022-08-05T13:29:07.907Z,100735.16
2022-08-05T13:32:04.047Z,100738.75
2022-08-05T13:34:26.082Z,100748.03
2022-08-05T13:36:54.352Z,100747.78
2022-08-05T13:39:24.757Z,100752.56
2022-08-05T13:42:14.364Z,100739.63
2022-08-05T13:44:45.682Z,100753.75
2022-08-05T13:47:35.625Z,100746.44
2022-08-05T13:50:04.469Z,100753.59
2022-08-05T13:52:35.547Z,100753.00
2022-08-05T13:55:08.036Z,100761.28
2022-08-05T13:57:50.592Z,100756.84
2022-08-05T14:00:27.633Z,100750.22
2022-08-05T14:02:56.637Z,100755.22
2022-08-05T14:05:48.518Z,100763.59
2022-08-05T14:08:21.253Z,100784.88
2022-08-05T14:11:03.287Z,100766.50
2022-08-05T14:13:48.144Z,100775.38
2022-08-05T14:16:17.192Z,100777.88
2022-08-05T14:18:47.580Z,100775.56
2022-08-05T14:22:07.690Z,100781.84
2022-08-05T14:24:02.431Z,100784.63
2022-08-05T14:26:38.675Z,100778.25
2022-08-05T14:29:16.324Z,100779.88
2022-08-05T14:32:03.672Z,100785.22
2022-08-05T14:34:35.315Z,100784.19
2022-08-05T14:37:04.370Z,100775.00
2022-08-05T14:39:49.679Z,100801.56
2022-08-05T14:42:20.627Z,100808.25
2022-08-05T14:44:56.824Z,100803.81
2022-08-05T14:48:02.840Z,100809.97
2022-08-05T14:50:19.693Z,100808.91
2022-08-05T14:52:56.844Z,100820.00
2022-08-05T14:55:38.768Z,100809.44
2022-08-05T14:58:11.358Z,100793.81
2022-08-05T15:00:58.722Z,100793.81
2022-08-05T15:03:33.788Z,100792.41
2022-08-05T15:06:13.490Z,100797.84
2022-08-05T15:09:01.072Z,100794.22
2022-08-05T15:11:51.127Z,100786.06
2022-08-05T15:14:33.979Z,100791.38
2022-08-05T15:17:05.014Z,100809.34
2022-08-05T15:19:40.138Z,100807.19
2022-08-05T15:22:16.121Z,100812.22
2022-08-05T15:24:48.593Z,100823.34
2022-08-05T15:27:17.284Z,100811.38
2022-08-05T15:29:52.604Z,100807.78
2022-08-05T15:32:21.313Z,100808.06
2022-08-05T15:34:55.877Z,100812.78
2022-08-05T15:38:34.667Z,100818.88
2022-08-05T15:41:01.026Z,100818.34
2022-08-05T15:43:08.008Z,100818.34
2022-08-05T15:45:45.542Z,100811.13
2022-08-05T15:48:14.284Z,100817.78
2022-08-05T15:50:43.860Z,100807.78
2022-08-05T15:53:13.209Z,100820.00
2022-08-05T15:56:03.166Z,100810.25
2022-08-05T15:58:36.891Z,100819.44
2022-08-05T16:01:16.060Z,100828.06
2022-08-05T16:03:48.506Z,100817.25
2022-08-05T16:06:20.931Z,100828.09
2022-08-05T16:08:55.319Z,100840.53
2022-08-05T16:11:42.984Z,100836.66
2022-08-05T16:14:09.566Z,100835.47
2022-08-05T16:16:36.804Z,100842.66
2022-08-05T16:19:04.162Z,100851.88
2022-08-05T16:22:00.777Z,100851.06
2022-08-05T16:24:39.986Z,100851.91
2022-08-05T16:27:07.329Z,100853.31
2022-08-05T16:29:37.237Z,100839.13
2022-08-05T16:32:09.559Z,100835.53
2022-08-05T16:34:42.550Z,100846.63
2022-08-05T16:38:03.236Z,100846.66
2022-08-05T16:40:06.295Z,100853.06
2022-08-05T16:42:35.760Z,100849.41
2022-08-05T16:45:06.217Z,100856.38
2022-08-05T16:47:54.425Z,100856.34
2022-08-05T16:50:24.427Z,100850.78
2022-08-05T16:52:51.474Z,100855.50
2022-08-05T16:55:20.468Z,100858.28
2022-08-05T16:58:00.109Z,100874.38
2022-08-05T17:00:34.961Z,100859.66
2022-08-05T17:03:03.701Z,100871.63
2022-08-05T17:05:36.959Z,100878.28
2022-08-05T17:08:04.705Z,100878.00
2022-08-05T17:10:31.578Z,100874.88
2022-08-05T17:12:58.449Z,100878.19
2022-08-05T17:15:29.481Z,100871.50
2022-08-05T17:18:14.132Z,100864.34
2022-08-05T17:20:42.218Z,100861.13
2022-08-05T17:24:03.609Z,100874.19
2022-08-05T17:25:58.848Z,100885.81
2022-08-05T17:28:25.964Z,100863.59
2022-08-05T17:30:57.679Z,100871.09
2022-08-05T17:33:26.862Z,100875.47
2022-08-05T17:36:31.674Z,100876.00
2022-08-05T17:38:54.155Z,100874.94
2022-08-05T17:42:20.088Z,100880.16
2022-08-05T17:44:11.248Z,100881.81
2022-08-05T17:46:38.296Z,100891.03
2022-08-05T17:49:05.443Z,100873.50
2022-08-05T17:51:40.583Z,100879.94
2022-08-05T17:54:08.411Z,100878.22
2022-08-05T17:56:36.790Z,100882.94
2022-08-05T17:59:04.644Z,100888.16
2022-08-05T18:01:49.213Z,100898.13
2022-08-05T18:04:21.487Z,100886.66
2022-08-05T18:06:55.164Z,100887.16
2022-08-05T18:09:28.448Z,100895.16
2022-08-05T18:12:22.183Z,100896.28
2022-08-05T18:14:51.763Z,100897.72
2022-08-05T18:18:01.035Z,100896.59
2022-08-05T18:20:13.892Z,100908.00
2022-08-05T18:22:54.643Z,100911.34
2022-08-05T18:25:25.161Z,100912.16
2022-08-05T18:27:59.492Z,100911.81
2022-08-05T18:30:32.452Z,100926.19
2022-08-05T18:33:00.168Z,100920.38
2022-08-05T18:36:01.294Z,100925.25
2022-08-05T18:38:16.464Z,100930.91
2022-08-05T18:41:56.228Z,100920.91
2022-08-05T18:43:38.146Z,100933.38
2022-08-05T18:46:10.826Z,100947.50
2022-08-05T18:48:41.875Z,100937.00
2022-08-05T18:52:06.203Z,100943.59
2022-08-05T18:54:15.860Z,100956.72
2022-08-05T18:56:51.023Z,100949.78
2022-08-05T18:59:44.143Z,100957.69
2022-08-05T19:02:26.991Z,100961.03
2022-08-05T19:05:02.291Z,100958.72
2022-08-05T19:07:46.275Z,100958.22
2022-08-05T19:10:18.750Z,100964.59
2022-08-05T19:12:53.669Z,100965.22
2022-08-05T19:15:57.696Z,100969.88
2022-08-05T19:18:09.343Z,100967.28
2022-08-05T19:20:41.361Z,100960.44
2022-08-05T19:24:03.588Z,100974.72
2022-08-05T19:26:01.786Z,100978.81
2022-08-05T19:28:33.098Z,100982.41
2022-08-05T19:31:00.423Z,100984.50
2022-08-05T19:33:35.483Z,100981.19
2022-08-05T19:36:09.014Z,100982.84
2022-08-05T19:38:36.679Z,100991.59
2022-08-05T19:41:07.237Z,100993.63
2022-08-05T19:44:06.429Z,100997.97
2022-08-05T19:46:29.815Z,101000.16
2022-08-05T19:49:03.048Z,101013.59
2022-08-05T19:51:59.850Z,101004.94
2022-08-05T19:54:25.564Z,101010.94
2022-08-05T19:57:02.388Z,101017.59
2022-08-05T19:59:54.891Z,101015.84
2022-08-05T20:02:18.961Z,101031.69
2022-08-05T20:04:48.375Z,101033.53
2022-08-05T20:07:46.772Z,101044.56
2022-08-05T20:10:13.626Z,101046.34
2022-08-05T20:12:45.957Z,101052.44
2022-08-05T20:15:23.454Z,101054.16
2022-08-05T20:18:10.320Z,101059.25
2022-08-05T20:20:56.501Z,101067.78
2022-08-05T20:23:40.502Z,101068.53
2022-08-05T20:26:16.097Z,101073.44
2022-08-05T20:28:48.890Z,101074.09
2022-08-05T20:31:21.949Z,101083.81
2022-08-05T20:33:55.509Z,101083.91
2022-08-05T20:36:24.292Z,101089.91
2022-08-05T20:38:53.794Z,101095.00
2022-08-05T20:41:24.204Z,101097.31
2022-08-05T20:43:58.744Z,101102.59
2022-08-05T20:46:30.084Z,101111.84
2022-08-05T20:48:57.143Z,101108.72
2022-08-05T20:51:24.094Z,101119.66
2022-08-05T20:53:56.460Z,101124.69
2022-08-05T20:56:29.742Z,101125.69
2022-08-05T20:59:00.042Z,101124.59
2022-08-05T21:01:39.028Z,101120.66
2022-08-05T21:04:10.873Z,101123.66
2022-08-05T21:06:45.385Z,101116.22
2022-08-05T21:09:15.549Z,101119.25
2022-08-05T21:12:07.034Z,101120.19
2022-08-05T21:14:34.608Z,101110.97
2022-08-05T21:17:04.965Z,101115.53
2022-08-05T21:19:46.611Z,101113.41
2022-08-05T21:22:18.631Z,101117.22
2022-08-05T21:24:51.853Z,101116.34
2022-08-05T21:27:25.306Z,101118.41
2022-08-05T21:29:56.504Z,101119.47
2022-08-05T21:32:26.834Z,101123.91
2022-08-05T21:35:17.526Z,101118.50
2022-08-05T21:37:47.118Z,101117.31
2022-08-05T21:40:14.724Z,101121.75
2022-08-05T21:42:44.820Z,101124.13
2022-08-05T21:45:17.657Z,101127.84
2022-08-05T21:47:56.649Z,101128.69
2022-08-05T21:50:26.455Z,101136.25
2022-08-05T21:52:58.778Z,101141.75
2022-08-05T21:56:00.842Z,101138.88
2022-08-05T21:58:12.975Z,101142.41
2022-08-05T22:00:40.175Z,101147.81
2022-08-05T22:03:07.441Z,101159.25
2022-08-05T22:05:48.538Z,101151.31
2022-08-05T22:08:22.141Z,101166.50
2022-08-05T22:10:51.834Z,101162.28
2022-08-05T22:14:34.386Z,101158.59
2022-08-05T22:16:32.310Z,101161.44
2022-08-05T22:18:54.060Z,101161.69
2022-08-05T22:21:25.752Z,101155.94
2022-08-05T22:24:13.210Z,101176.53
2022-08-05T22:27:17.370Z,101171.47
2022-08-05T22:29:44.390Z,101173.00
2022-08-05T22:32:17.481Z,101169.88
2022-08-05T22:34:44.552Z,101165.69
2022-08-05T22:37:13.304Z,101161.63
2022-08-05T22:39:40.400Z,101167.97
2022-08-05T22:42:12.361Z,101171.34
2022-08-05T22:44:53.742Z,101163.81
2022-08-05T22:47:29.423Z,101165.41
2022-08-05T22:50:20.885Z,101181.78
2022-08-05T22:52:44.138Z,101185.13
2022-08-05T22:55:18.905Z,101189.44
2022-08-05T22:57:48.977Z,101184.59
2022-08-05T23:00:17.858Z,101190.66
2022-08-05T23:02:48.305Z,101185.41
2022-08-05T23:05:16.271Z,101183.09
2022-08-05T23:07:44.770Z,101191.59
2022-08-05T23:10:15.097Z,101190.38
2022-08-05T23:12:43.918Z,101207.34
2022-08-05T23:15:11.920Z,101198.56
2022-08-05T23:18:02.348Z,101198.78
2022-08-05T23:20:25.816Z,101207.03
2022-08-05T23:22:55.838Z,101190.09
2022-08-05T23:25:54.697Z,101197.72
2022-08-05T23:28:11.188Z,101209.41
2022-08-05T23:30:43.472Z,101215.22
2022-08-05T23:33:22.140Z,101210.59
2022-08-05T23:35:55.969Z,101209.88
2022-08-05T23:38:26.964Z,101209.66
2022-08-05T23:40:53.989Z,101215.53
2022-08-05T23:43:25.206Z,101217.94
2022-08-05T23:46:05.182Z,101226.00
2022-08-05T23:48:59.710Z,101224.47
2022-08-05T23:51:53.926Z,101214.78
2022-08-05T23:54:34.265Z,101212.25
2022-08-05T23:57:05.786Z,101210.81
